Deweyville, Texas
Current Conditions -  °F | °C
As of 9:15 PM on Saturday 20 Dec 2014 (Local Time) from KORG Reporting Station
Clear Clear  
Wind Chill:   Ceiling: Unl
Heat Index:   Visibility: 10mi
Dew Point:   Wind: 3mph
Humidity: 91%   Direction: 10°N
Pressure: 30.2"   Gusts: NA
Location:  30.3°N, 93.74°W
Report Text: KORG 210315Z AUTO 01003KT 10SM CLR 10/08 A3020 RMK AO2 T00950081
Loading
Personal Weather Stations






























Interactive Weather Map New forecast layout! Learn more

10-Day Weather Forecast

Advertisements
Track Severe Weather on mobile